map of XRY home
XRY - Airport
Location
City:  Jerez de la Frontera, Andalusia, Spain
Name:La Parra
ICAO:LEJR
IATA:XRY

Details
Type:Airport (Aerodrome, Airfield)
Use:Public/Civil
Latitude:3644'41"N (36.744622)
Longitude:603'36"W (-6.060110)
Datum:WGS 1984
Elevation:93 ft (28 m)
Variation:1.08W (WMM2015v2 magnetic declination)
0.15 annual change
Runways:1
Longest:7546 × 148 ft (2300 × 45 m), paved

Time
Time Zone:UTC+1 (DST+2)
Local Time:

Weather
METAR:LEJR 041400Z 36008KT 330V030 CAVOK 15/04 Q1027
TAF:LEJR 041100Z 0412/0512 04009KT CAVOK TX16/0416Z TN03/0507Z

Related Locations
Nearby:
Farthest:NZPI: 12422 mi / 19992 km
Parakai, AUK, NZ

Find:

   beyond  
but within

Other Information
Maps:
NOTAMs:
Links:
Sources:

  
  • flag of Spain
  • flag of Andalusia
  

Airport Diagram

Airport diagram for XRY

Larger airport diagram (OBSOLETE) from NGA

Sectional Chart

Flight Planning
at skyvector.com

Satellite Image

Google Maps Satellite view

 

Copyright © 2004-2019 Karl L. Swartz. All rights reserved.
The Great Circle Mapper name and logo are trademarks of the Great Circle Mapper.
All other trademarks mentioned herein belong to their respective owners.
Please see credits for attibutions and further copyright information.

  Follow gcmap on Facebook Follow gcmap on Twitter GCmap on LinkedIn

hCard Microformat

Geo Microformat